createdAt,value
2022-10-19T00:03:07.741Z,83.56
2022-10-19T00:13:11.338Z,83.42
2022-10-19T00:23:15.512Z,83.23
2022-10-19T00:33:22.333Z,84.22
2022-10-19T00:43:30.621Z,84.28
2022-10-19T00:53:35.969Z,84.44
2022-10-19T01:03:40.711Z,84.18
2022-10-19T01:14:26.515Z,84.41
2022-10-19T01:25:16.142Z,84.35
2022-10-19T01:35:37.818Z,84.21
2022-10-19T01:46:07.473Z,83.75
2022-10-19T01:56:14.110Z,83.79
2022-10-19T02:06:18.791Z,83.71
2022-10-19T02:16:34.955Z,83.47
2022-10-19T02:26:40.071Z,83.54
2022-10-19T02:36:44.037Z,83.47
2022-10-19T02:47:12.452Z,83.37
2022-10-19T02:57:20.529Z,83.28
2022-10-19T03:07:24.701Z,83.61
2022-10-19T03:17:28.269Z,83.55
2022-10-19T03:27:32.466Z,83.78
2022-10-19T03:37:36.841Z,83.37
2022-10-19T03:47:40.716Z,83.48
2022-10-19T03:57:44.456Z,83.62
2022-10-19T04:07:48.029Z,83.89
2022-10-19T04:17:51.585Z,84.21
2022-10-19T04:27:55.254Z,84.27
2022-10-19T04:37:59.842Z,84.34
2022-10-19T04:48:03.504Z,84.30
2022-10-19T04:58:06.963Z,84.34
2022-10-19T05:08:11.853Z,83.97
2022-10-19T05:18:15.524Z,84.01
2022-10-19T05:28:19.083Z,83.93
2022-10-19T05:38:22.953Z,84.13
2022-10-19T05:48:28.569Z,84.01
2022-10-19T05:58:33.100Z,84.17
2022-10-19T06:08:38.252Z,83.72
2022-10-19T06:18:43.241Z,83.39
2022-10-19T06:28:48.200Z,83.49
2022-10-19T06:38:53.643Z,83.65
2022-10-19T06:48:59.829Z,82.17
2022-10-19T06:59:04.143Z,80.99
2022-10-19T07:09:07.843Z,79.37
2022-10-19T07:19:12.204Z,79.55
2022-10-19T07:29:16.685Z,79.57
2022-10-19T07:39:21.438Z,78.98
2022-10-19T07:49:25.030Z,78.90
2022-10-19T07:59:28.910Z,78.14
2022-10-19T08:09:52.114Z,77.73
2022-10-19T08:19:57.885Z,77.22
2022-10-19T08:30:04.962Z,76.03
2022-10-19T08:40:19.613Z,75.02
2022-10-19T08:50:32.166Z,73.46
2022-10-19T09:00:46.009Z,72.92
2022-10-19T09:10:52.911Z,72.58
2022-10-19T09:21:06.695Z,71.12
2022-10-19T09:31:18.483Z,69.12
2022-10-19T09:41:25.141Z,69.54
2022-10-19T09:51:51.270Z,69.61
2022-10-19T10:02:14.585Z,68.41
2022-10-19T10:12:18.856Z,67.91
2022-10-19T10:22:52.705Z,67.28
2022-10-19T10:33:08.058Z,67.94
2022-10-19T10:43:23.043Z,67.67
2022-10-19T10:53:40.752Z,67.39
2022-10-19T11:03:59.264Z,66.95
2022-10-19T11:14:21.756Z,66.66
2022-10-19T11:25:08.508Z,66.30
2022-10-19T11:35:34.574Z,65.97
2022-10-19T11:46:01.786Z,65.83
2022-10-19T11:56:25.162Z,64.61
2022-10-19T12:06:55.684Z,63.48
2022-10-19T12:17:06.374Z,63.15
2022-10-19T12:27:17.254Z,62.61
2022-10-19T12:37:48.867Z,63.26
2022-10-19T12:48:08.892Z,61.61
2022-10-19T12:58:25.419Z,61.04
2022-10-19T13:08:33.857Z,60.99
2022-10-19T13:19:00.043Z,60.38
2022-10-19T13:29:04.688Z,59.95
2022-10-19T13:39:14.153Z,61.13
2022-10-19T13:49:47.322Z,61.85
2022-10-19T14:00:03.579Z,62.16
2022-10-19T14:10:22.722Z,62.40
2022-10-19T14:20:39.112Z,63.72
2022-10-19T14:30:43.432Z,63.87
2022-10-19T14:40:47.711Z,64.94
2022-10-19T14:50:57.011Z,65.67
2022-10-19T15:01:00.756Z,66.23
2022-10-19T15:11:06.881Z,66.06
2022-10-19T15:21:16.300Z,67.32
2022-10-19T15:31:24.867Z,67.70
2022-10-19T15:41:41.886Z,68.90
2022-10-19T15:51:47.929Z,69.08
2022-10-19T16:01:55.054Z,70.04
2022-10-19T16:12:00.410Z,70.71
2022-10-19T16:22:04.640Z,71.71
2022-10-19T16:32:10.332Z,72.21
2022-10-19T16:42:14.966Z,73.46
2022-10-19T16:52:20.174Z,73.92
2022-10-19T17:02:24.568Z,74.44
2022-10-19T17:12:28.898Z,75.09
2022-10-19T17:22:34.627Z,75.31
2022-10-19T17:32:42.511Z,75.32
2022-10-19T17:42:48.211Z,75.24
2022-10-19T17:52:53.549Z,74.99
2022-10-19T18:02:59.315Z,74.70
2022-10-19T18:13:04.877Z,75.13
2022-10-19T18:23:10.713Z,74.40
2022-10-19T18:33:18.635Z,74.92
2022-10-19T18:43:24.788Z,75.79
2022-10-19T18:53:31.173Z,76.22
2022-10-19T19:03:38.009Z,75.73
2022-10-19T19:13:47.708Z,76.39
2022-10-19T19:23:54.297Z,76.89
2022-10-19T19:34:02.414Z,77.30
2022-10-19T19:44:08.022Z,78.06
2022-10-19T19:54:13.139Z,78.16
2022-10-19T20:04:20.166Z,77.37
2022-10-19T20:14:25.162Z,75.96
2022-10-19T20:24:29.285Z,75.65
2022-10-19T20:34:36.690Z,76.04
2022-10-19T20:44:40.462Z,76.57
2022-10-19T20:54:44.432Z,77.37
2022-10-19T21:04:49.229Z,78.51
2022-10-19T21:14:52.893Z,79.39
2022-10-19T21:24:56.581Z,79.97
2022-10-19T21:35:00.729Z,80.37
2022-10-19T21:45:25.725Z,80.40
2022-10-19T21:55:30.072Z,80.41
2022-10-19T22:05:34.043Z,79.81
2022-10-19T22:15:38.926Z,79.58
2022-10-19T22:25:42.518Z,79.35
2022-10-19T22:35:55.264Z,78.25
2022-10-19T22:45:58.949Z,75.97
2022-10-19T22:56:03.004Z,74.96
2022-10-19T23:06:12.213Z,73.84
2022-10-19T23:16:16.235Z,74.85
2022-10-19T23:26:21.583Z,75.50
2022-10-19T23:36:28.111Z,75.62
2022-10-19T23:46:31.876Z,76.24
2022-10-19T23:56:35.449Z,76.60
